createdAt,value
2018-08-19T00:00:51.053Z,15.90
2018-08-19T00:03:19.725Z,15.80
2018-08-19T00:05:48.569Z,15.80
2018-08-19T00:08:16.821Z,15.90
2018-08-19T00:10:52.494Z,15.80
2018-08-19T00:13:20.844Z,15.80
2018-08-19T00:15:50.550Z,15.80
2018-08-19T00:18:19.542Z,15.80
2018-08-19T00:20:48.193Z,15.80
2018-08-19T00:23:16.933Z,15.80
2018-08-19T00:25:46.265Z,15.80
2018-08-19T00:28:17.259Z,15.80
2018-08-19T00:30:46.681Z,15.60
2018-08-19T00:33:15.784Z,15.60
2018-08-19T00:35:44.633Z,15.50
2018-08-19T00:38:14.500Z,15.50
2018-08-19T00:40:43.897Z,15.50
2018-08-19T00:43:12.071Z,15.40
2018-08-19T00:45:40.762Z,15.30
2018-08-19T00:48:10.930Z,15.20
2018-08-19T00:50:40.221Z,15.20
2018-08-19T00:53:09.351Z,15.20
2018-08-19T00:55:43.673Z,15.20
2018-08-19T00:58:17.703Z,15.20
2018-08-19T01:00:46.698Z,15.30
2018-08-19T01:03:15.432Z,15.30
2018-08-19T01:05:44.091Z,15.30
2018-08-19T01:08:13.751Z,15.30
2018-08-19T01:10:42.969Z,15.20
2018-08-19T01:13:12.159Z,15.20
2018-08-19T01:15:41.047Z,15.10
2018-08-19T01:18:10.024Z,15.00
2018-08-19T01:20:38.950Z,15.00
2018-08-19T01:23:07.302Z,15.10
2018-08-19T01:25:35.978Z,15.10
2018-08-19T01:28:04.599Z,15.10
2018-08-19T01:30:33.329Z,15.10
2018-08-19T01:33:01.401Z,15.00
2018-08-19T01:35:34.885Z,15.00
2018-08-19T01:38:03.541Z,15.00
2018-08-19T01:40:31.886Z,14.90
2018-08-19T01:43:00.577Z,14.90
2018-08-19T01:45:29.943Z,14.90
2018-08-19T01:47:58.081Z,14.90
2018-08-19T01:50:27.155Z,14.80
2018-08-19T01:52:55.438Z,14.80
2018-08-19T01:55:24.589Z,14.80
2018-08-19T01:57:53.201Z,14.70
2018-08-19T02:00:22.842Z,14.70
2018-08-19T02:03:00.521Z,14.70
2018-08-19T02:05:29.282Z,14.60
2018-08-19T02:07:59.594Z,14.70
2018-08-19T02:10:29.631Z,14.70
2018-08-19T02:12:59.141Z,14.70
2018-08-19T02:15:28.473Z,14.70
2018-08-19T02:17:58.720Z,14.80
2018-08-19T02:20:30.741Z,14.80
2018-08-19T02:23:00.578Z,14.80
2018-08-19T02:25:37.343Z,14.90
2018-08-19T02:28:07.216Z,14.90
2018-08-19T02:30:41.909Z,14.80
2018-08-19T02:33:10.810Z,14.90
2018-08-19T02:35:39.269Z,14.90
2018-08-19T02:38:07.906Z,14.80
2018-08-19T02:40:36.946Z,14.80
2018-08-19T02:43:08.727Z,14.80
2018-08-19T02:45:37.366Z,14.80
2018-08-19T02:48:10.852Z,14.80
2018-08-19T02:50:39.826Z,14.80
2018-08-19T02:53:07.985Z,14.70
2018-08-19T02:55:36.725Z,14.70
2018-08-19T02:58:11.603Z,14.70
2018-08-19T03:00:39.898Z,14.70
2018-08-19T03:03:08.035Z,14.70
2018-08-19T03:05:37.833Z,14.70
2018-08-19T03:08:07.992Z,14.70
2018-08-19T03:10:36.798Z,14.70
2018-08-19T03:13:05.397Z,14.70
2018-08-19T03:15:33.708Z,14.70
2018-08-19T03:18:02.883Z,14.70
2018-08-19T03:20:31.190Z,14.60
2018-08-19T03:23:02.320Z,14.60
2018-08-19T03:25:31.505Z,14.60
2018-08-19T03:27:59.917Z,14.60
2018-08-19T03:30:28.841Z,14.50
2018-08-19T03:33:01.712Z,14.60
2018-08-19T03:35:29.859Z,14.60
2018-08-19T03:38:03.445Z,14.60
2018-08-19T03:40:31.600Z,14.60
2018-08-19T03:42:59.789Z,14.50
2018-08-19T03:45:30.980Z,14.50
2018-08-19T03:47:59.497Z,14.50
2018-08-19T03:50:27.862Z,14.50
2018-08-19T03:52:57.346Z,14.40
2018-08-19T03:55:27.990Z,14.40
2018-08-19T03:57:59.623Z,14.30
2018-08-19T04:00:29.482Z,14.20
2018-08-19T04:02:57.901Z,14.20
2018-08-19T04:05:41.036Z,14.20
2018-08-19T04:08:10.636Z,14.20
2018-08-19T04:10:40.482Z,14.30
2018-08-19T04:13:24.600Z,14.30
2018-08-19T04:15:55.500Z,14.30
2018-08-19T04:19:30.537Z,14.30
2018-08-19T04:22:01.239Z,14.30
2018-08-19T04:24:30.340Z,14.30
2018-08-19T04:26:59.761Z,14.20
2018-08-19T04:29:28.621Z,14.20
2018-08-19T04:31:57.086Z,14.30
2018-08-19T04:34:30.498Z,14.20
2018-08-19T04:36:59.903Z,14.30
2018-08-19T04:39:29.050Z,14.40
2018-08-19T04:41:58.025Z,14.40
2018-08-19T04:44:26.190Z,14.50
2018-08-19T04:46:54.627Z,14.50
2018-08-19T04:49:23.833Z,14.60
2018-08-19T04:51:53.071Z,14.70
2018-08-19T04:54:21.218Z,14.70
2018-08-19T04:56:49.461Z,14.70
2018-08-19T04:59:18.501Z,14.80
2018-08-19T05:01:47.421Z,14.90
2018-08-19T05:04:15.899Z,15.00
2018-08-19T05:06:45.386Z,15.20
2018-08-19T05:09:14.201Z,15.40
2018-08-19T05:11:43.637Z,15.60
2018-08-19T05:14:12.260Z,15.70
2018-08-19T05:16:40.745Z,15.70
2018-08-19T05:19:10.323Z,15.80
2018-08-19T05:21:38.922Z,15.80
2018-08-19T05:24:07.966Z,15.80
2018-08-19T05:26:36.145Z,15.90
2018-08-19T05:29:09.213Z,16.00
2018-08-19T05:31:51.103Z,16.00
2018-08-19T05:34:24.786Z,16.10
2018-08-19T05:36:53.572Z,16.30
2018-08-19T05:39:22.556Z,16.40
2018-08-19T05:42:02.324Z,16.50
2018-08-19T05:44:34.137Z,16.50
2018-08-19T05:47:10.868Z,16.50
2018-08-19T05:49:40.286Z,16.60
2018-08-19T05:52:16.427Z,16.70
2018-08-19T05:54:52.390Z,16.70
2018-08-19T05:57:20.721Z,16.70
2018-08-19T05:59:50.551Z,16.80
2018-08-19T06:02:24.376Z,16.90
2018-08-19T06:04:54.098Z,17.00
2018-08-19T06:07:23.208Z,17.10
2018-08-19T06:09:51.833Z,17.20
2018-08-19T06:12:20.670Z,17.20
2018-08-19T06:14:48.889Z,17.30
2018-08-19T06:17:17.957Z,17.30
2018-08-19T06:19:46.423Z,17.30
2018-08-19T06:22:15.630Z,17.30
2018-08-19T06:24:45.329Z,17.30
2018-08-19T06:27:14.498Z,17.40
2018-08-19T06:29:52.806Z,17.60
2018-08-19T06:32:27.028Z,17.70
2018-08-19T06:34:55.555Z,17.80
2018-08-19T06:37:24.306Z,17.70
2018-08-19T06:39:54.170Z,17.90
2018-08-19T06:42:23.542Z,18.00
2018-08-19T06:44:52.368Z,18.10
2018-08-19T06:47:20.655Z,18.00
2018-08-19T06:49:54.218Z,18.20
2018-08-19T06:52:24.042Z,18.30
2018-08-19T06:54:53.134Z,18.40
2018-08-19T06:57:22.039Z,18.60
2018-08-19T06:59:50.877Z,18.50
2018-08-19T07:02:22.010Z,18.80
2018-08-19T07:04:50.192Z,18.90
2018-08-19T07:07:19.622Z,19.10
2018-08-19T07:09:48.520Z,19.10
2018-08-19T07:12:21.562Z,19.20
2018-08-19T07:14:50.377Z,19.30
2018-08-19T07:17:19.332Z,19.50
2018-08-19T07:19:48.182Z,19.70
2018-08-19T07:22:18.164Z,19.80
2018-08-19T07:24:46.774Z,19.90
2018-08-19T07:27:15.847Z,20.10
2018-08-19T07:29:46.601Z,19.80
2018-08-19T07:32:14.906Z,20.00
2018-08-19T07:34:43.509Z,20.30
2018-08-19T07:37:12.126Z,20.40
2018-08-19T07:39:46.669Z,20.40
2018-08-19T07:42:15.320Z,20.40
2018-08-19T07:44:44.576Z,20.60
2018-08-19T07:47:13.367Z,20.70
2018-08-19T07:49:42.434Z,20.70
2018-08-19T07:52:11.274Z,20.60
2018-08-19T07:54:39.846Z,20.60
2018-08-19T07:57:13.018Z,20.70
2018-08-19T07:59:44.041Z,20.70
2018-08-19T08:02:12.638Z,20.70
2018-08-19T08:04:40.759Z,20.90
2018-08-19T08:07:09.007Z,20.90
2018-08-19T08:09:37.360Z,21.10
2018-08-19T08:12:08.259Z,21.20
2018-08-19T08:14:38.207Z,21.30
2018-08-19T08:17:08.349Z,21.50
2018-08-19T08:19:37.222Z,21.40
2018-08-19T08:22:10.814Z,21.70
2018-08-19T08:24:40.241Z,22.10
2018-08-19T08:27:10.326Z,21.90
2018-08-19T08:29:38.591Z,21.90
2018-08-19T08:32:07.758Z,21.50
2018-08-19T08:34:36.734Z,21.50
2018-08-19T08:37:06.396Z,21.80
2018-08-19T08:39:36.209Z,22.00
2018-08-19T08:42:05.618Z,22.10
2018-08-19T08:44:33.964Z,21.80
2018-08-19T08:47:05.632Z,21.70
2018-08-19T08:49:39.155Z,21.70
2018-08-19T08:52:14.818Z,21.70
2018-08-19T08:54:49.037Z,21.80
2018-08-19T08:57:17.969Z,21.90
2018-08-19T09:01:11.688Z,22.00
2018-08-19T09:03:43.271Z,22.10
2018-08-19T09:06:17.146Z,22.40
2018-08-19T09:08:45.412Z,23.20
2018-08-19T09:11:13.557Z,23.60
2018-08-19T09:13:42.721Z,24.20
2018-08-19T09:16:11.337Z,24.20
2018-08-19T09:25:38.017Z,24.60
2018-08-19T09:28:07.272Z,24.40
2018-08-19T09:30:40.491Z,24.20
2018-08-19T09:33:09.297Z,24.50
2018-08-19T09:35:39.233Z,24.10
2018-08-19T09:38:23.394Z,23.90
2018-08-19T09:40:52.404Z,24.00
2018-08-19T09:43:20.819Z,23.40
2018-08-19T09:45:49.225Z,23.40
2018-08-19T09:48:17.707Z,23.40
2018-08-19T09:50:46.270Z,23.20
2018-08-19T09:53:14.517Z,23.00
2018-08-19T09:55:44.993Z,23.10
2018-08-19T09:58:15.185Z,23.60
2018-08-19T10:00:48.754Z,23.80
2018-08-19T10:03:17.720Z,23.90
2018-08-19T10:05:46.044Z,23.70
2018-08-19T10:08:15.086Z,23.30
2018-08-19T10:10:43.793Z,23.20
2018-08-19T10:13:14.270Z,23.00
2018-08-19T10:15:47.041Z,22.90
2018-08-19T10:18:15.742Z,22.70
2018-08-19T10:20:44.065Z,22.20
2018-08-19T10:23:14.173Z,22.10
2018-08-19T10:25:42.351Z,22.40
2018-08-19T10:28:11.418Z,22.70
2018-08-19T10:31:11.058Z,22.90
2018-08-19T10:33:40.046Z,22.60
2018-08-19T10:36:08.229Z,22.30
2018-08-19T10:38:36.394Z,22.60
2018-08-19T10:41:05.696Z,22.80
2018-08-19T10:44:37.981Z,22.90
2018-08-19T10:47:06.233Z,22.90
2018-08-19T10:49:35.334Z,22.70
2018-08-19T10:52:07.105Z,23.10
2018-08-19T10:54:35.997Z,23.50
2018-08-19T10:57:13.370Z,23.80
2018-08-19T10:59:41.801Z,23.70
2018-08-19T11:02:10.021Z,23.30
2018-08-19T11:04:38.274Z,23.10
2018-08-19T11:07:07.326Z,22.80
2018-08-19T11:09:45.921Z,22.60
2018-08-19T11:12:14.298Z,22.70
2018-08-19T11:14:42.486Z,22.90
2018-08-19T11:17:12.353Z,23.10
2018-08-19T11:19:40.561Z,23.20
2018-08-19T11:22:08.819Z,23.30
2018-08-19T11:24:38.670Z,23.20
2018-08-19T11:27:08.535Z,23.80
2018-08-19T11:29:40.561Z,23.90
2018-08-19T11:32:09.546Z,24.30
2018-08-19T11:34:37.994Z,25.10
2018-08-19T11:37:06.361Z,25.30
2018-08-19T11:39:40.705Z,25.30
2018-08-19T11:42:08.950Z,25.10
2018-08-19T11:44:37.694Z,24.40
2018-08-19T11:47:05.874Z,24.60
2018-08-19T11:49:34.035Z,24.60
2018-08-19T11:52:03.958Z,24.30
2018-08-19T11:54:33.073Z,24.20
2018-08-19T11:57:05.552Z,24.40
2018-08-19T11:59:42.917Z,24.30
2018-08-19T12:02:15.487Z,24.50
2018-08-19T12:04:43.949Z,25.50
2018-08-19T12:07:13.554Z,26.10
2018-08-19T12:09:46.975Z,26.40
2018-08-19T12:12:15.780Z,27.70
2018-08-19T12:14:45.581Z,28.40
2018-08-19T12:17:14.581Z,27.40
2018-08-19T12:19:44.106Z,26.30
2018-08-19T12:22:12.260Z,26.00
2018-08-19T12:24:43.998Z,26.70
2018-08-19T12:27:13.654Z,26.40
2018-08-19T12:29:42.782Z,26.20
2018-08-19T12:32:15.713Z,26.50
2018-08-19T12:34:48.010Z,27.30
2018-08-19T12:37:18.141Z,27.60
2018-08-19T12:39:46.673Z,27.10
2018-08-19T12:42:15.125Z,26.20
2018-08-19T12:44:45.616Z,26.40
2018-08-19T12:47:16.790Z,26.80
2018-08-19T12:49:53.993Z,26.40
2018-08-19T12:52:23.961Z,26.10
2018-08-19T12:54:56.673Z,26.60
2018-08-19T12:57:25.411Z,26.60
2018-08-19T13:00:01.578Z,26.40
2018-08-19T13:02:29.957Z,26.30
2018-08-19T13:04:58.151Z,26.50
2018-08-19T13:07:26.968Z,26.50
2018-08-19T13:09:55.095Z,26.90
2018-08-19T13:12:23.296Z,26.80
2018-08-19T13:14:52.361Z,26.80
2018-08-19T13:17:20.955Z,27.00
2018-08-19T13:19:54.637Z,26.90
2018-08-19T13:22:23.241Z,27.10
2018-08-19T13:24:52.849Z,26.90
2018-08-19T13:27:21.710Z,26.30
2018-08-19T13:29:50.033Z,26.20
2018-08-19T13:32:18.851Z,26.40
2018-08-19T13:34:47.011Z,26.40
2018-08-19T13:37:15.778Z,26.40
2018-08-19T13:39:46.088Z,26.50
2018-08-19T13:42:14.771Z,26.40
2018-08-19T13:44:43.857Z,26.50
2018-08-19T13:47:12.752Z,26.60
2018-08-19T13:49:42.457Z,26.30
2018-08-19T13:52:11.523Z,26.40
2018-08-19T13:55:02.445Z,26.80
2018-08-19T13:57:30.842Z,27.00
2018-08-19T13:59:59.608Z,26.90
2018-08-19T14:02:28.410Z,26.50
2018-08-19T14:04:57.449Z,26.50
2018-08-19T14:07:25.864Z,26.30
2018-08-19T14:09:55.329Z,26.00
2018-08-19T14:12:23.820Z,26.10
2018-08-19T14:14:51.926Z,26.00
2018-08-19T14:17:20.441Z,25.90
2018-08-19T14:19:48.739Z,26.00
2018-08-19T14:22:17.332Z,26.00
2018-08-19T14:24:46.271Z,26.00
2018-08-19T14:27:14.773Z,25.90
2018-08-19T14:29:42.879Z,25.90
2018-08-19T14:32:25.641Z,26.00
2018-08-19T14:46:26.566Z,25.50
2018-08-19T14:48:58.127Z,25.70
2018-08-19T14:51:27.293Z,25.80
2018-08-19T14:54:07.144Z,25.90
2018-08-19T14:56:36.802Z,25.80
2018-08-19T14:59:06.251Z,26.20
2018-08-19T15:01:35.217Z,26.20
2018-08-19T15:04:04.051Z,26.10
2018-08-19T15:06:33.493Z,26.00
2018-08-19T15:09:02.650Z,25.80
2018-08-19T15:11:31.300Z,26.00
2018-08-19T15:14:04.014Z,26.10
2018-08-19T15:16:33.463Z,26.10
2018-08-19T15:19:02.351Z,26.20
2018-08-19T15:21:30.585Z,26.20
2018-08-19T15:23:59.237Z,26.20
2018-08-19T15:26:29.486Z,26.00
2018-08-19T15:28:57.677Z,25.90
2018-08-19T15:31:28.169Z,25.70
2018-08-19T15:33:56.541Z,25.60
2018-08-19T15:36:25.349Z,25.70
2018-08-19T15:38:53.497Z,25.80
2018-08-19T15:41:21.974Z,25.70
2018-08-19T15:43:50.149Z,25.70
2018-08-19T15:46:18.601Z,25.70
2018-08-19T15:48:50.526Z,25.70
2018-08-19T15:51:20.417Z,25.80
2018-08-19T15:53:49.335Z,25.70
2018-08-19T15:56:19.113Z,25.70
2018-08-19T15:58:48.512Z,25.60
2018-08-19T16:01:26.225Z,25.50
2018-08-19T16:03:56.336Z,25.40
2018-08-19T16:06:24.729Z,25.20
2018-08-19T16:08:54.029Z,24.70
2018-08-19T16:11:22.473Z,24.40
2018-08-19T16:13:51.166Z,24.20
2018-08-19T16:16:22.644Z,24.10
2018-08-19T16:18:52.233Z,24.10
2018-08-19T16:21:20.535Z,24.20
2018-08-19T16:23:48.882Z,24.40
2018-08-19T16:26:17.864Z,24.40
2018-08-19T16:28:46.994Z,24.40
2018-08-19T16:31:15.897Z,24.50
2018-08-19T16:33:44.517Z,24.50
2018-08-19T16:36:13.154Z,24.40
2018-08-19T16:38:41.449Z,24.40
2018-08-19T16:41:11.437Z,24.30
2018-08-19T16:43:41.869Z,24.30
2018-08-19T16:46:10.856Z,24.30
2018-08-19T16:48:39.365Z,24.30
2018-08-19T16:51:08.341Z,24.30
2018-08-19T16:53:37.152Z,24.30
2018-08-19T16:56:06.018Z,24.20
2018-08-19T16:58:35.035Z,24.00
2018-08-19T17:01:03.936Z,23.90
2018-08-19T17:03:35.849Z,23.80
2018-08-19T17:06:06.915Z,23.80
2018-08-19T17:08:36.385Z,23.70
2018-08-19T17:11:05.095Z,23.60
2018-08-19T17:13:34.353Z,23.60
2018-08-19T17:16:04.284Z,23.60
2018-08-19T17:18:32.646Z,23.40
2018-08-19T17:21:02.187Z,23.40
2018-08-19T17:23:32.453Z,23.30
2018-08-19T17:26:03.343Z,23.20
2018-08-19T17:28:33.075Z,23.10
2018-08-19T17:31:01.570Z,23.10
2018-08-19T17:33:31.436Z,23.10
2018-08-19T17:36:00.346Z,23.00
2018-08-19T17:38:34.177Z,22.90
2018-08-19T17:41:02.861Z,22.90
2018-08-19T17:43:44.308Z,22.80
2018-08-19T17:46:14.155Z,22.70
2018-08-19T17:48:43.187Z,22.70
2018-08-19T17:51:23.942Z,22.60
2018-08-19T17:53:53.328Z,22.50
2018-08-19T17:56:22.293Z,22.40
2018-08-19T17:58:50.892Z,22.30
2018-08-19T18:01:19.303Z,22.20
2018-08-19T18:03:49.450Z,22.10
2018-08-19T18:06:17.684Z,22.00
2018-08-19T18:08:50.891Z,21.90
2018-08-19T18:11:20.178Z,21.80
2018-08-19T18:13:49.110Z,21.70
2018-08-19T18:16:17.305Z,21.70
2018-08-19T18:18:47.984Z,21.60
2018-08-19T18:21:17.754Z,21.60
2018-08-19T18:23:48.357Z,21.50
2018-08-19T18:26:17.381Z,21.50
2018-08-19T18:28:47.280Z,21.40
2018-08-19T18:31:20.193Z,21.40
2018-08-19T18:33:54.029Z,21.40
2018-08-19T18:36:25.269Z,21.30
2018-08-19T18:38:54.013Z,21.20
2018-08-19T18:41:25.841Z,21.20
2018-08-19T18:43:56.115Z,21.10
2018-08-19T18:46:25.453Z,21.00
2018-08-19T18:49:29.825Z,20.90
2018-08-19T18:52:04.330Z,20.90
2018-08-19T18:54:34.005Z,20.70
2018-08-19T18:57:06.059Z,20.50
2018-08-19T18:59:34.613Z,20.40
2018-08-19T19:02:03.888Z,20.20
2018-08-19T19:04:32.877Z,20.10
2018-08-19T19:07:01.167Z,20.10
2018-08-19T19:09:35.671Z,20.00
2018-08-19T19:12:04.201Z,19.90
2018-08-19T19:14:32.849Z,19.90
2018-08-19T19:17:01.342Z,19.80
2018-08-19T19:19:35.440Z,19.70
2018-08-19T19:22:03.684Z,19.60
2018-08-19T19:24:41.078Z,19.50
2018-08-19T19:27:10.713Z,19.50
2018-08-19T19:29:39.197Z,19.50
2018-08-19T19:32:23.994Z,19.50
2018-08-19T19:34:52.968Z,19.60
2018-08-19T19:37:23.205Z,19.60
2018-08-19T19:39:56.995Z,19.70
2018-08-19T19:42:26.781Z,19.70
2018-08-19T19:44:55.029Z,19.70
2018-08-19T19:47:23.438Z,19.70
2018-08-19T19:49:57.905Z,19.70
2018-08-19T19:52:27.777Z,19.70
2018-08-19T19:54:57.168Z,19.70
2018-08-19T19:57:25.236Z,19.80
2018-08-19T19:59:54.385Z,19.80
2018-08-19T20:02:28.518Z,19.80
2018-08-19T20:04:57.500Z,19.80
2018-08-19T20:07:27.348Z,19.90
2018-08-19T20:09:56.006Z,19.90
2018-08-19T20:12:28.821Z,19.90
2018-08-19T20:14:59.393Z,20.00
2018-08-19T20:17:28.834Z,19.90
2018-08-19T20:19:57.098Z,19.90
2018-08-19T20:22:26.666Z,20.00
2018-08-19T20:24:54.860Z,20.00
2018-08-19T20:27:24.869Z,20.00
2018-08-19T20:29:54.857Z,20.00
2018-08-19T20:32:23.044Z,20.00
2018-08-19T20:34:51.664Z,20.10
2018-08-19T20:37:23.679Z,20.10
2018-08-19T20:39:52.848Z,20.20
2018-08-19T20:42:22.139Z,20.10
2018-08-19T20:44:51.133Z,20.20
2018-08-19T20:47:19.746Z,20.10
2018-08-19T20:49:48.958Z,20.10
2018-08-19T20:52:20.081Z,20.10
2018-08-19T20:54:50.069Z,20.10
2018-08-19T20:57:18.601Z,20.20
2018-08-19T20:59:48.746Z,20.20
2018-08-19T21:02:18.689Z,20.20
2018-08-19T21:04:47.245Z,20.20
2018-08-19T21:07:15.705Z,20.20
2018-08-19T21:09:44.821Z,20.10
2018-08-19T21:12:15.142Z,20.10
2018-08-19T21:14:43.831Z,20.20
2018-08-19T21:17:12.089Z,20.10
2018-08-19T21:19:40.492Z,20.10
2018-08-19T21:22:09.381Z,20.10
2018-08-19T21:24:37.809Z,20.10
2018-08-19T21:27:07.122Z,20.10
2018-08-19T21:29:37.214Z,20.10
2018-08-19T21:32:05.994Z,20.10
2018-08-19T21:34:34.883Z,20.10
2018-08-19T21:37:04.004Z,20.10
2018-08-19T21:39:33.057Z,20.10
2018-08-19T21:42:02.380Z,20.10
2018-08-19T21:44:30.845Z,20.00
2018-08-19T21:46:59.985Z,20.10
2018-08-19T21:49:29.033Z,20.10
2018-08-19T21:51:57.942Z,20.10
2018-08-19T21:54:26.693Z,20.00
2018-08-19T21:56:54.969Z,20.00
2018-08-19T21:59:24.780Z,20.00
2018-08-19T22:01:58.808Z,20.00
2018-08-19T22:04:29.042Z,20.00
2018-08-19T22:06:57.144Z,20.00
2018-08-19T22:09:32.824Z,20.00
2018-08-19T22:12:01.849Z,20.00
2018-08-19T22:14:30.548Z,20.00
2018-08-19T22:17:04.761Z,20.00
2018-08-19T22:19:34.693Z,20.00
2018-08-19T22:22:04.611Z,20.10
2018-08-19T22:24:33.361Z,20.10
2018-08-19T22:27:08.039Z,20.10
2018-08-19T22:29:38.787Z,20.10
2018-08-19T22:32:07.482Z,20.10
2018-08-19T22:34:36.533Z,20.10
2018-08-19T22:37:05.392Z,20.00
2018-08-19T22:39:34.853Z,20.10
2018-08-19T22:42:03.317Z,20.00
2018-08-19T22:44:32.778Z,19.90
2018-08-19T22:47:03.526Z,19.90
2018-08-19T22:49:32.696Z,19.80
2018-08-19T22:52:17.267Z,19.80
2018-08-19T22:54:45.865Z,19.80
2018-08-19T22:57:15.078Z,19.70
2018-08-19T22:59:43.894Z,19.80
2018-08-19T23:02:15.063Z,19.70
2018-08-19T23:04:44.536Z,19.60
2018-08-19T23:07:13.265Z,19.60
2018-08-19T23:09:41.996Z,19.60
2018-08-19T23:12:10.616Z,19.60
2018-08-19T23:14:50.684Z,19.60
2018-08-19T23:17:20.326Z,19.60
2018-08-19T23:19:50.601Z,19.60
2018-08-19T23:22:19.278Z,19.60
2018-08-19T23:24:48.738Z,19.60
2018-08-19T23:27:17.448Z,19.60
2018-08-19T23:29:46.019Z,19.50
2018-08-19T23:32:15.218Z,19.50
2018-08-19T23:34:44.660Z,19.50
2018-08-19T23:37:14.018Z,19.50
2018-08-19T23:39:43.266Z,19.50
2018-08-19T23:42:12.001Z,19.50
2018-08-19T23:44:40.811Z,19.60
2018-08-19T23:47:09.819Z,19.50
